Time;durP1;ratioP1;P1;durP2;ratioP2;P2;SDS_P1;SDS_P2;PMS_P1;PMS_P2;Temp;Humidity;BMP_temperature;BMP_pressure;BME280_temperature;BME280_humidity;BME280_pressure;Samples;Min_cycle;Max_cycle;Signal;HPM_P1;HPM_P2
2022/10/30 00:00:28;;;;;;;18.13;9.73;;;;;;;14.89;55.93;101727.97;7392642;19;20014;-64
2022/10/30 00:02:54;;;;;;;19.48;9.98;;;;;;;14.78;56.20;101722.19;7391478;19;20219;-63
2022/10/30 00:05:20;;;;;;;18.25;10.32;;;;;;;14.79;56.04;101723.75;7392643;19;19991;-63
2022/10/30 00:07:46;;;;;;;18.30;9.13;;;;;;;14.83;55.80;101723.88;7389644;19;20005;-63
2022/10/30 00:10:12;;;;;;;26.73;9.75;;;;;;;14.81;55.79;101717.91;7387880;19;20545;-63
2022/10/30 00:12:38;;;;;;;19.35;10.13;;;;;;;14.82;56.19;101718.75;7392822;19;19991;-63
2022/10/30 00:15:05;;;;;;;19.42;9.68;;;;;;;14.82;56.19;101711.28;7391914;19;20030;-63
2022/10/30 00:17:30;;;;;;;20.13;9.77;;;;;;;14.89;55.80;101707.94;7392166;19;20005;-63
2022/10/30 00:19:56;;;;;;;18.00;9.30;;;;;;;14.95;55.73;101696.34;7390578;19;19995;-63
2022/10/30 00:22:21;;;;;;;21.48;10.13;;;;;;;14.93;55.26;101700.59;7391331;19;20015;-63
2022/10/30 00:24:47;;;;;;;19.15;10.02;;;;;;;14.88;55.57;101709.91;7391885;19;19999;-63
2022/10/30 00:27:13;;;;;;;18.95;10.02;;;;;;;14.97;55.46;101707.78;7389034;19;20107;-63
2022/10/30 00:29:38;;;;;;;20.77;9.82;;;;;;;15.01;55.23;101707.88;7390168;19;20349;-63
2022/10/30 00:32:04;;;;;;;21.15;9.50;;;;;;;14.98;55.33;101709.41;7391890;19;20535;-63
2022/10/30 00:34:29;;;;;;;17.77;9.57;;;;;;;14.91;55.83;101706.47;7391953;19;20006;-63
2022/10/30 00:36:55;;;;;;;16.40;9.80;;;;;;;14.93;55.51;101704.16;7392368;19;20002;-63
2022/10/30 00:39:21;;;;;;;17.35;9.35;;;;;;;14.85;55.92;101707.06;7386372;19;19999;-63
2022/10/30 00:41:46;;;;;;;18.98;10.48;;;;;;;14.82;56.04;101711.28;7390346;19;20011;-62
2022/10/30 00:44:42;;;;;;;17.58;9.85;;;;;;;14.85;55.66;101707.06;7391196;19;20026;-63
2022/10/30 00:47:17;;;;;;;17.40;9.07;;;;;;;14.88;55.93;101709.09;7389895;19;20009;-63
2022/10/30 00:50:14;;;;;;;24.98;9.70;;;;;;;14.88;55.79;101709.09;7390108;19;19999;-62
2022/10/30 00:52:45;;;;;;;16.67;9.02;;;;;;;14.84;56.07;101713.69;7387602;19;20003;-62
2022/10/30 00:55:18;;;;;;;20.00;9.80;;;;;;;14.93;55.73;101706.09;7390534;19;20011;-62
2022/10/30 00:57:44;;;;;;;21.08;9.57;;;;;;;15.07;55.56;101700.22;7391291;19;20017;-62
2022/10/30 01:00:11;;;;;;;17.33;8.95;;;;;;;14.97;55.68;101702.28;7389845;19;20074;-62
2022/10/30 01:02:39;;;;;;;16.67;8.40;;;;;;;15.06;55.43;101698.59;7390150;19;20011;-62
2022/10/30 01:05:05;;;;;;;20.90;9.55;;;;;;;15.03;55.40;101696.53;7390394;19;20007;-62
2022/10/30 01:07:30;;;;;;;19.38;9.18;;;;;;;14.91;56.06;101700.13;7390315;19;20006;-62
2022/10/30 01:09:56;;;;;;;18.92;8.85;;;;;;;14.94;55.56;101702.19;7386395;19;20014;-62
2022/10/30 01:12:22;;;;;;;19.88;9.02;;;;;;;14.79;56.12;101703.72;7388459;19;20474;-62
2022/10/30 01:14:55;;;;;;;18.52;8.88;;;;;;;14.76;55.64;101702.50;7389159;19;20006;-62
2022/10/30 01:17:46;;;;;;;19.15;8.13;;;;;;;14.68;55.59;101697.91;7391698;19;20031;-63
2022/10/30 01:20:30;;;;;;;18.55;8.85;;;;;;;14.73;55.92;101694.91;7387717;19;20003;-63
2022/10/30 01:23:38;;;;;;;18.67;8.63;;;;;;;14.63;56.00;101703.66;7395424;19;20007;-63
2022/10/30 01:26:07;;;;;;;19.25;8.30;;;;;;;14.61;55.64;101698.50;7396140;19;19999;-63
2022/10/30 01:28:54;;;;;;;14.48;7.85;;;;;;;14.57;55.94;101699.53;7395871;19;19999;-63
2022/10/30 01:32:01;;;;;;;17.38;8.60;;;;;;;14.66;55.43;101696.66;7396368;19;20001;-62
2022/10/30 01:34:45;;;;;;;19.67;8.23;;;;;;;14.62;55.79;101711.06;7397627;19;20463;-62
2022/10/30 01:37:14;;;;;;;;;;;;;;;14.69;55.57;101706.94;7397774;19;19998;-62
2022/10/30 01:39:40;;;;;;;13.32;7.57;;;;;;;14.77;55.41;101708.78;7394207;19;19928;-63
2022/10/30 01:42:30;;;;;;;21.33;9.27;;;;;;;14.82;55.45;101713.25;7396687;19;20003;-63
2022/10/30 01:44:56;;;;;;;16.85;8.10;;;;;;;14.93;55.15;101708.84;7397041;19;20003;-63
2022/10/30 01:47:45;;;;;;;19.13;9.00;;;;;;;15.10;54.91;101705.78;7396794;19;20002;-63
2022/10/30 01:50:35;;;;;;;18.13;8.82;;;;;;;15.28;54.84;101699.97;7396791;19;19991;-63
2022/10/30 01:53:43;;;;;;;18.90;8.82;;;;;;;15.42;54.83;101700.38;7396473;19;19999;-63
2022/10/30 01:56:38;;;;;;;20.60;8.70;;;;;;;15.52;54.46;101710.84;7395584;19;20006;-63
2022/10/30 01:59:13;;;;;;;20.58;8.45;;;;;;;15.62;54.68;101700.47;7390994;19;20002;-63
2022/10/30 02:01:39;;;;;;;19.30;8.45;;;;;;;15.66;54.53;101698.63;7396268;19;20022;-63
2022/10/30 02:04:08;;;;;;;18.55;7.93;;;;;;;15.69;54.31;101706.19;7396425;19;20455;-63
2022/10/30 02:06:35;;;;;;;17.17;8.02;;;;;;;15.66;54.28;101704.13;7396854;19;20000;-62
2022/10/30 02:09:01;;;;;;;16.23;7.32;;;;;;;15.67;54.50;101703.00;7392289;19;20347;-63
2022/10/30 02:11:27;;;;;;;17.23;7.65;;;;;;;15.52;54.93;101702.59;7395014;19;19995;-62
2022/10/30 02:13:55;;;;;;;20.45;7.53;;;;;;;15.49;54.91;101708.78;7393988;19;19995;-62
2022/10/30 02:16:22;;;;;;;15.52;8.05;;;;;;;15.41;55.24;101707.00;7396933;19;19998;-62
2022/10/30 02:18:47;;;;;;;20.77;8.65;;;;;;;15.35;55.36;101705.69;7390723;19;20022;-62
2022/10/30 02:21:13;;;;;;;19.08;8.45;;;;;;;15.50;54.80;101713.16;7396800;19;19994;-62
2022/10/30 02:23:39;;;;;;;15.10;7.32;;;;;;;15.62;54.80;101698.53;7394187;19;19999;-62
2022/10/30 02:26:05;;;;;;;15.02;7.55;;;;;;;15.63;54.58;101710.34;7395545;19;20011;-62
2022/10/30 02:28:30;;;;;;;17.77;7.65;;;;;;;15.65;54.67;101705.31;7392919;19;20015;-62
2022/10/30 02:30:56;;;;;;;16.85;7.47;;;;;;;15.74;54.47;101708.66;7396129;19;20013;-62
2022/10/30 02:33:23;;;;;;;16.88;7.65;;;;;;;15.77;54.09;101702.47;7394132;19;20062;-62
2022/10/30 02:35:49;;;;;;;17.75;8.10;;;;;;;15.79;54.29;101708.41;7393803;19;20332;-62
2022/10/30 02:38:15;;;;;;;16.55;7.22;;;;;;;15.84;53.99;101704.59;7392756;19;20467;-61
2022/10/30 02:40:41;;;;;;;18.00;6.95;;;;;;;15.84;54.19;101708.13;7394159;19;19999;-61
2022/10/30 02:43:07;;;;;;;23.33;7.85;;;;;;;15.80;54.21;101707.25;7391710;19;19998;-62
2022/10/30 02:45:32;;;;;;;18.17;7.07;;;;;;;15.84;54.07;101705.38;7394882;19;20069;-60
2022/10/30 02:47:59;;;;;;;16.02;7.43;;;;;;;15.84;54.06;101708.13;7391398;19;20140;-60
2022/10/30 02:50:25;;;;;;;15.98;7.28;;;;;;;15.86;53.81;101711.31;7394634;19;19991;-60
2022/10/30 02:52:51;;;;;;;19.27;7.00;;;;;;;15.87;53.78;101721.19;7395121;19;20011;-60
2022/10/30 02:55:17;;;;;;;15.18;7.35;;;;;;;15.89;53.75;101718.88;7394838;19;20034;-60
2022/10/30 02:57:42;;;;;;;19.30;7.53;;;;;;;15.90;53.53;101712.22;7394184;19;20029;-60
2022/10/30 03:00:08;;;;;;;16.65;7.80;;;;;;;15.94;53.45;101714.28;7392545;19;20362;-60
2022/10/30 03:02:34;;;;;;;13.95;7.28;;;;;;;15.94;53.49;101714.28;7394612;19;20010;-60
2022/10/30 03:05:00;;;;;;;17.35;7.25;;;;;;;15.85;53.55;101708.94;7395803;19;20003;-59
2022/10/30 03:07:25;;;;;;;17.27;7.32;;;;;;;15.88;53.69;101705.47;7393220;19;20030;-59
2022/10/30 03:09:53;;;;;;;17.77;7.18;;;;;;;15.89;53.42;101705.09;7393111;19;20454;-59
2022/10/30 03:12:18;;;;;;;19.08;7.18;;;;;;;15.94;53.23;101709.56;7394098;19;20076;-59
2022/10/30 03:14:50;;;;;;;17.58;7.65;;;;;;;15.96;53.41;101706.44;7394104;19;20002;-60
2022/10/30 03:17:16;;;;;;;18.67;7.90;;;;;;;15.94;53.42;101706.81;7394046;19;20018;-60
2022/10/30 03:19:42;;;;;;;19.67;7.55;;;;;;;15.97;53.33;101713.56;7392734;19;20407;-60
2022/10/30 03:22:07;;;;;;;17.77;7.25;;;;;;;16.00;53.25;101710.06;7394048;19;20014;-60
2022/10/30 03:24:33;;;;;;;18.40;7.22;;;;;;;15.92;53.45;101714.63;7394326;19;20364;-60
2022/10/30 03:26:58;;;;;;;16.98;7.18;;;;;;;15.79;54.05;101713.13;7392603;19;20003;-60
2022/10/30 03:29:24;;;;;;;16.73;7.95;;;;;;;15.66;54.37;101709.63;7389157;19;20015;-60
2022/10/30 03:31:49;;;;;;;17.10;8.30;;;;;;;15.59;54.65;101710.22;7394292;19;20037;-60
2022/10/30 03:34:15;;;;;;;14.00;7.55;;;;;;;15.59;54.40;101710.22;7394599;19;20321;-59
2022/10/30 03:36:41;;;;;;;16.45;7.40;;;;;;;15.55;54.58;101715.66;7394616;19;19995;-59
2022/10/30 03:39:06;;;;;;;16.10;8.05;;;;;;;15.49;54.94;101719.81;7388969;19;20028;-60
2022/10/30 03:41:32;;;;;;;14.10;6.95;;;;;;;15.48;55.11;101717.41;7392931;19;19998;-59
2022/10/30 03:43:58;;;;;;;17.63;7.55;;;;;;;15.53;54.81;101720.72;7393401;19;19999;-59
2022/10/30 03:46:30;;;;;;;17.83;7.93;;;;;;;15.57;54.42;101717.25;7393879;19;20002;-59
2022/10/30 03:48:55;;;;;;;17.83;6.82;;;;;;;15.63;54.22;101721.34;7390243;19;20018;-59
2022/10/30 03:51:21;;;;;;;15.48;7.65;;;;;;;15.69;54.27;101719.94;7392167;19;20003;-60
2022/10/30 03:53:46;;;;;;;16.02;7.38;;;;;;;15.60;54.29;101719.28;7392895;19;20019;-60
2022/10/30 03:56:12;;;;;;;19.95;7.93;;;;;;;15.55;54.70;101726.66;7393874;19;19998;-60
2022/10/30 03:58:38;;;;;;;15.48;7.25;;;;;;;15.50;54.53;101723.38;7390718;19;20003;-60
2022/10/30 04:01:05;;;;;;;16.75;6.43;;;;;;;15.48;54.73;101725.66;7392940;19;20066;-60
2022/10/30 04:03:31;;;;;;;17.00;6.57;;;;;;;15.47;54.78;101724.84;7390867;19;19994;-60
2022/10/30 04:05:57;;;;;;;15.85;6.82;;;;;;;15.40;54.97;101727.44;7393039;19;19995;-60
2022/10/30 04:08:23;;;;;;;16.65;7.68;;;;;;;15.42;54.79;101719.63;7389446;19;20482;-60
2022/10/30 04:10:48;;;;;;;16.80;6.90;;;;;;;15.59;54.12;101717.69;7392473;19;20002;-60
2022/10/30 04:13:16;;;;;;;15.82;6.85;;;;;;;15.65;53.66;101713.56;7390279;19;20070;-60
2022/10/30 04:15:42;;;;;;;19.50;7.28;;;;;;;15.72;53.38;101713.75;7393104;19;20451;-61
2022/10/30 04:18:11;;;;;;;19.98;7.45;;;;;;;15.82;53.11;101710.44;7389811;19;20038;-61
2022/10/30 04:20:37;;;;;;;18.15;7.88;;;;;;;15.77;52.93;101705.22;7392186;19;19999;-61
2022/10/30 04:23:05;;;;;;;19.50;7.07;;;;;;;15.70;53.46;101705.84;7388417;19;20013;-60
2022/10/30 04:25:32;;;;;;;19.95;7.53;;;;;;;15.72;53.24;101699.97;7393172;19;20003;-60
2022/10/30 04:27:58;;;;;;;22.85;7.60;;;;;;;15.65;53.44;101697.84;7388971;19;20015;-60
2022/10/30 04:30:26;;;;;;;21.70;7.30;;;;;;;15.53;53.60;101687.69;7391805;19;19998;-61
2022/10/30 04:32:53;;;;;;;15.98;7.03;;;;;;;15.50;53.81;101691.16;7389793;19;19999;-61
2022/10/30 04:35:21;;;;;;;15.30;7.00;;;;;;;15.54;53.70;101692.03;7392085;19;19994;-60
2022/10/30 04:37:54;;;;;;;19.90;7.22;;;;;;;15.51;53.51;101692.75;7389218;19;20467;-60
2022/10/30 04:40:23;;;;;;;16.63;7.43;;;;;;;15.42;54.03;101694.84;7391891;19;20020;-60
2022/10/30 04:42:49;;;;;;;20.52;7.43;;;;;;;15.29;54.42;101696.09;7389332;19;20011;-59
2022/10/30 04:45:14;;;;;;;14.98;6.10;;;;;;;15.23;54.38;101700.22;7391448;19;19995;-60
2022/10/30 04:47:40;;;;;;;18.40;7.32;;;;;;;15.32;54.10;101709.13;7390531;19;20478;-61
2022/10/30 04:50:07;;;;;;;19.00;7.30;;;;;;;15.40;53.74;101701.84;7388193;19;19999;-60
2022/10/30 04:52:32;;;;;;;20.45;8.07;;;;;;;15.39;53.79;101703.03;7389263;19;19998;-60
2022/10/30 04:54:58;;;;;;;15.45;7.20;;;;;;;15.24;54.01;101699.09;7391637;19;20006;-60
2022/10/30 04:57:23;;;;;;;17.38;7.97;;;;;;;15.12;54.46;101698.00;7389134;19;19999;-60
2022/10/30 04:59:49;;;;;;;16.63;7.43;;;;;;;15.13;54.24;101707.84;7389673;19;20447;-60
2022/10/30 05:02:14;;;;;;;19.55;8.10;;;;;;;15.21;54.24;101708.84;7391204;19;20344;-60
2022/10/30 05:04:40;;;;;;;15.05;7.57;;;;;;;15.12;54.32;101710.94;7389070;19;20002;-59
2022/10/30 05:07:06;;;;;;;18.33;7.63;;;;;;;15.14;54.31;101709.44;7388533;19;20460;-59
2022/10/30 05:09:32;;;;;;;20.52;7.85;;;;;;;15.21;53.87;101703.31;7387895;19;20036;-59
2022/10/30 05:11:57;;;;;;;20.27;8.50;;;;;;;15.23;53.82;101697.47;7390276;19;20052;-59
2022/10/30 05:14:23;;;;;;;17.67;7.35;;;;;;;15.28;53.58;101706.28;7391310;19;19987;-59
2022/10/30 05:16:49;;;;;;;19.23;8.15;;;;;;;15.30;53.41;101701.22;7391052;19;20070;-59
2022/10/30 05:19:14;;;;;;;17.60;7.30;;;;;;;15.33;53.44;101705.22;7387242;19;19990;-59
2022/10/30 05:21:40;;;;;;;16.52;7.40;;;;;;;15.35;53.24;101702.94;7390464;19;20085;-59
2022/10/30 05:24:06;;;;;;;17.15;7.65;;;;;;;15.34;53.33;101704.06;7391110;19;19998;-60
2022/10/30 05:26:31;;;;;;;18.35;7.53;;;;;;;15.28;53.15;101717.28;7389647;19;20003;-59
2022/10/30 05:28:57;;;;;;;16.85;7.30;;;;;;;15.27;53.51;101718.44;7387447;19;20538;-60
2022/10/30 05:31:23;;;;;;;16.50;7.35;;;;;;;15.26;53.34;101716.03;7388872;19;20092;-60
2022/10/30 05:33:48;;;;;;;16.95;6.80;;;;;;;15.15;53.59;101724.00;7388425;19;20006;-60
2022/10/30 05:36:14;;;;;;;14.70;7.25;;;;;;;15.18;53.49;101720.56;7390477;19;20002;-60
2022/10/30 05:38:39;;;;;;;18.92;8.38;;;;;;;15.00;53.98;101728.28;7386943;19;20009;-59
2022/10/30 05:41:05;;;;;;;18.10;8.48;;;;;;;14.93;54.15;101728.91;7388429;19;20006;-59
2022/10/30 05:43:30;;;;;;;17.60;7.07;;;;;;;14.95;54.37;101731.28;7388645;19;19995;-59
2022/10/30 05:45:56;;;;;;;17.33;8.18;;;;;;;15.09;53.56;101728.94;7390023;19;20459;-60
2022/10/30 05:48:22;;;;;;;24.25;8.32;;;;;;;15.17;53.57;101732.69;7387250;19;20007;-59
2022/10/30 05:50:47;;;;;;;23.30;8.32;;;;;;;15.31;53.17;101718.53;7390539;19;20013;-60
2022/10/30 05:53:13;;;;;;;16.50;7.65;;;;;;;15.28;53.07;101719.22;7389084;19;19999;-60
2022/10/30 05:55:39;;;;;;;15.23;7.85;;;;;;;15.13;53.33;101727.09;7390401;19;20028;-60
2022/10/30 05:58:05;;;;;;;19.77;8.85;;;;;;;14.99;54.06;101729.44;7387168;19;20010;-60
2022/10/30 06:00:34;;;;;;;17.58;7.32;;;;;;;15.05;53.86;101725.31;7389393;19;20431;-59
2022/10/30 06:03:06;;;;;;;18.00;8.73;;;;;;;15.01;54.03;101727.13;7388703;19;19998;-60
2022/10/30 06:05:34;;;;;;;20.48;8.82;;;;;;;15.08;53.73;101730.09;7390123;19;20015;-60
2022/10/30 06:08:00;;;;;;;18.15;8.40;;;;;;;15.17;53.48;101722.47;7388757;19;20099;-60
2022/10/30 06:10:27;;;;;;;23.77;9.80;;;;;;;15.16;53.23;101734.66;7394263;19;20006;-60
2022/10/30 06:12:59;;;;;;;18.65;9.25;;;;;;;15.22;53.08;101734.41;7396375;19;20405;-60
2022/10/30 06:15:26;;;;;;;16.40;8.98;;;;;;;15.16;53.16;101740.16;7396231;19;20030;-60
2022/10/30 06:17:52;;;;;;;21.63;8.38;;;;;;;15.16;53.15;101739.34;7394098;19;19998;-59
2022/10/30 06:20:20;;;;;;;19.50;7.70;;;;;;;15.08;53.54;101745.78;7395169;19;20332;-59
2022/10/30 06:22:57;;;;;;;18.88;8.00;;;;;;;15.03;53.63;101751.53;7394877;19;20016;-59
2022/10/30 06:25:24;;;;;;;19.33;8.45;;;;;;;15.02;53.61;101752.69;7395931;19;20086;-60
2022/10/30 06:27:50;;;;;;;21.20;8.35;;;;;;;14.99;53.60;101743.97;7392846;19;20009;-59
2022/10/30 06:30:16;;;;;;;15.85;7.60;;;;;;;14.92;53.68;101730.03;7395917;19;20007;-59
2022/10/30 06:32:42;;;;;;;14.90;7.72;;;;;;;14.78;54.02;101727.69;7395666;19;20021;-60
2022/10/30 06:35:08;;;;;;;18.95;7.85;;;;;;;14.75;54.01;101733.88;7396798;19;19998;-59
2022/10/30 06:37:34;;;;;;;18.13;8.30;;;;;;;14.61;54.11;101739.72;7393511;19;20003;-60
2022/10/30 06:40:00;;;;;;;21.02;8.23;;;;;;;14.54;54.29;101741.44;7394270;19;20440;-60
2022/10/30 06:42:26;;;;;;;16.58;8.02;;;;;;;14.55;54.30;101749.31;7394351;19;20066;-60
2022/10/30 06:44:51;;;;;;;18.15;8.57;;;;;;;14.58;54.34;101747.84;7395656;19;20463;-59
2022/10/30 06:47:17;;;;;;;19.65;8.23;;;;;;;14.55;54.25;101756.78;7395701;19;20462;-59
2022/10/30 06:49:42;;;;;;;20.42;10.07;;;;;;;14.68;53.84;101758.34;7392075;19;20020;-60
2022/10/30 06:52:08;;;;;;;17.63;9.38;;;;;;;14.59;54.21;101757.66;7394554;19;19995;-59
2022/10/30 06:54:34;;;;;;;20.20;8.35;;;;;;;14.63;54.17;101764.09;7395637;19;20065;-59
2022/10/30 06:56:59;;;;;;;20.73;8.55;;;;;;;14.57;54.21;101768.22;7394790;19;20062;-59
2022/10/30 06:59:25;;;;;;;20.88;8.57;;;;;;;14.48;54.67;101767.53;7391415;19;20472;-59
2022/10/30 07:01:50;;;;;;;23.92;9.20;;;;;;;14.50;54.72;101768.78;7392788;19;20003;-60
2022/10/30 07:04:16;;;;;;;17.33;8.40;;;;;;;14.55;54.32;101771.31;7393225;19;20002;-60
2022/10/30 07:06:41;;;;;;;19.08;8.57;;;;;;;14.53;54.34;101779.09;7396034;19;20037;-60
2022/10/30 07:09:07;;;;;;;19.30;7.97;;;;;;;14.52;54.76;101779.44;7391423;19;20470;-60
2022/10/30 07:11:33;;;;;;;23.35;9.52;;;;;;;14.64;54.14;101779.41;7394262;19;20467;-60
2022/10/30 07:13:58;;;;;;;20.33;9.43;;;;;;;14.74;54.21;101778.94;7395729;19;20010;-60
2022/10/30 07:16:24;;;;;;;18.92;9.30;;;;;;;14.68;54.16;101777.59;7392690;19;19998;-60
2022/10/30 07:18:50;;;;;;;20.83;9.07;;;;;;;14.72;54.16;101786.72;7390116;19;19998;-60
2022/10/30 07:21:16;;;;;;;20.95;9.20;;;;;;;14.78;54.08;101782.63;7392139;19;20036;-60
2022/10/30 07:23:41;;;;;;;18.23;9.05;;;;;;;14.77;54.15;101785.72;7392567;19;20023;-60
2022/10/30 07:26:07;;;;;;;20.00;9.40;;;;;;;14.75;53.86;101794.31;7392991;19;19999;-60
2022/10/30 07:28:32;;;;;;;20.52;8.77;;;;;;;14.85;54.09;101798.53;7388489;19;19995;-60
2022/10/30 07:30:58;;;;;;;20.70;9.63;;;;;;;14.84;54.05;101796.13;7391729;19;20526;-60
2022/10/30 07:33:24;;;;;;;17.45;8.90;;;;;;;14.81;54.22;101803.13;7393132;19;20061;-60
2022/10/30 07:35:49;;;;;;;19.73;9.13;;;;;;;14.82;54.20;101809.44;7394508;19;19999;-60
2022/10/30 07:38:16;;;;;;;18.17;8.75;;;;;;;14.90;54.07;101808.50;7392225;19;19998;-60
2022/10/30 07:40:42;;;;;;;18.00;9.02;;;;;;;14.93;54.00;101814.09;7393096;19;20011;-60
2022/10/30 07:43:12;;;;;;;22.15;9.50;;;;;;;15.02;54.08;101815.91;7392006;19;19995;-60
2022/10/30 07:45:38;;;;;;;20.60;8.68;;;;;;;15.10;53.76;101810.28;7393612;19;19998;-60
2022/10/30 07:48:05;;;;;;;20.50;9.60;;;;;;;15.14;53.77;101811.16;7391673;19;20433;-60
2022/10/30 07:50:31;;;;;;;16.95;7.93;;;;;;;15.16;53.73;101810.81;7393250;19;20042;-60
2022/10/30 07:52:57;;;;;;;21.38;9.00;;;;;;;15.19;53.67;101807.38;7391663;19;20002;-60
2022/10/30 07:55:23;;;;;;;18.90;9.32;;;;;;;15.24;53.74;101820.09;7391939;19;20507;-60
2022/10/30 07:57:48;;;;;;;22.05;9.27;;;;;;;15.33;53.29;101818.81;7391531;19;20018;-60
2022/10/30 08:00:15;;;;;;;21.70;9.00;;;;;;;15.48;52.90;101828.25;7389776;19;20526;-60
2022/10/30 08:02:41;;;;;;;22.50;9.77;;;;;;;15.53;52.73;101822.50;7392366;19;19999;-61
2022/10/30 08:05:06;;;;;;;19.80;8.63;;;;;;;15.57;53.00;101810.81;7392915;19;20348;-60
2022/10/30 08:07:34;;;;;;;22.02;9.77;;;;;;;15.71;52.29;101816.72;7391997;19;20518;-60
2022/10/30 08:10:00;;;;;;;16.52;8.95;;;;;;;15.78;51.95;101808.66;7390975;19;20002;-60
2022/10/30 08:12:26;;;;;;;21.38;9.38;;;;;;;15.85;51.65;101811.59;7392428;19;19998;-59
2022/10/30 08:14:52;;;;;;;20.85;9.52;;;;;;;15.92;51.72;101822.78;7392857;19;20003;-59
2022/10/30 08:17:19;;;;;;;18.58;9.90;;;;;;;15.95;51.75;101817.72;7392352;19;20003;-59
2022/10/30 08:19:44;;;;;;;23.33;9.23;;;;;;;15.99;51.58;101822.16;7391203;19;19995;-59
2022/10/30 08:22:10;;;;;;;20.77;9.68;;;;;;;16.00;51.42;101817.44;7390068;19;20002;-59
2022/10/30 08:24:36;;;;;;;23.58;9.25;;;;;;;16.08;51.48;101830.25;7392337;19;19995;-59
2022/10/30 08:27:03;;;;;;;21.13;9.13;;;;;;;16.10;51.25;101816.94;7390906;19;20459;-60
2022/10/30 08:29:29;;;;;;;19.20;9.55;;;;;;;16.14;51.35;101814.28;7388835;19;20017;-60
2022/10/30 08:31:54;;;;;;;17.90;8.90;;;;;;;16.22;50.83;101818.81;7389372;19;20459;-60
2022/10/30 08:34:20;;;;;;;23.58;10.07;;;;;;;16.25;50.84;101816.16;7390171;19;20030;-59
2022/10/30 08:36:50;;;;;;;28.00;10.73;;;;;;;16.28;50.85;101817.38;7389588;19;20486;-59
2022/10/30 08:39:17;;;;;;;20.13;8.93;;;;;;;16.33;50.53;101819.84;7389605;19;20066;-61
2022/10/30 08:41:43;;;;;;;21.30;9.48;;;;;;;16.39;50.66;101817.66;7389088;19;19998;-61
2022/10/30 08:44:10;;;;;;;20.70;9.25;;;;;;;16.43;50.93;101818.53;7389692;19;19999;-60
2022/10/30 08:46:35;;;;;;;23.42;10.00;;;;;;;16.46;50.69;101817.81;7390923;19;20454;-61
2022/10/30 08:49:04;;;;;;;26.67;9.60;;;;;;;16.48;50.61;101818.28;7388163;19;20012;-60
2022/10/30 08:51:34;;;;;;;21.90;10.30;;;;;;;16.45;50.69;101814.25;7390223;19;20002;-61
2022/10/30 08:54:00;;;;;;;19.55;9.77;;;;;;;16.55;50.45;101821.22;7389677;19;20070;-60
2022/10/30 08:56:26;;;;;;;20.65;9.90;;;;;;;16.60;50.43;101822.88;7391391;19;19995;-60
2022/10/30 08:58:52;;;;;;;23.63;9.85;;;;;;;16.64;50.28;101818.25;7388023;19;20032;-60
2022/10/30 09:01:18;;;;;;;19.52;9.38;;;;;;;16.65;50.45;101815.16;7390659;19;19995;-60
2022/10/30 09:03:44;;;;;;;21.63;10.35;;;;;;;16.69;50.45;101819.94;7389452;19;20002;-60
2022/10/30 09:06:10;;;;;;;21.83;9.60;;;;;;;16.63;50.66;101814.72;7389003;19;20007;-60
2022/10/30 09:08:36;;;;;;;26.80;10.85;;;;;;;16.69;50.57;101815.22;7388916;19;20007;-60
2022/10/30 09:11:02;;;;;;;25.98;10.77;;;;;;;16.76;50.60;101806.31;7389272;19;20026;-60
2022/10/30 09:13:28;;;;;;;23.95;10.13;;;;;;;16.70;51.13;101811.31;7388787;19;20145;-60
2022/10/30 09:15:59;;;;;;;23.35;10.13;;;;;;;16.72;50.86;101809.00;7391646;19;20007;-61
2022/10/30 09:18:25;;;;;;;22.58;10.32;;;;;;;16.73;51.12;101809.78;7388539;19;20010;-60
2022/10/30 09:20:50;;;;;;;20.35;10.25;;;;;;;16.84;50.63;101810.84;7391161;19;20002;-60
2022/10/30 09:23:16;;;;;;;20.42;10.18;;;;;;;16.87;50.65;101812.06;7388618;19;20002;-60
2022/10/30 09:25:41;;;;;;;23.80;10.10;;;;;;;16.88;50.88;101808.94;7390241;19;20047;-60
2022/10/30 09:28:07;;;;;;;24.80;10.90;;;;;;;16.95;50.59;101811.88;7386906;19;20098;-60
2022/10/30 09:30:33;;;;;;;28.23;11.05;;;;;;;16.95;50.79;101806.38;7391070;19;20009;-60
2022/10/30 09:33:01;;;;;;;23.25;10.20;;;;;;;17.05;50.79;101809.69;7390249;19;19995;-62
2022/10/30 09:35:27;;;;;;;23.83;9.70;;;;;;;17.09;50.75;101800.34;7391129;19;20038;-60
2022/10/30 09:37:53;;;;;;;19.75;10.32;;;;;;;17.14;50.79;101811.09;7390331;19;20010;-60
2022/10/30 09:40:41;;;;;;;23.90;10.77;;;;;;;17.19;50.58;101799.75;7389453;19;20105;-60
2022/10/30 09:43:23;;;;;;;19.45;10.40;;;;;;;17.23;50.56;101805.34;7392146;19;20103;-60
2022/10/30 09:46:07;;;;;;;23.38;10.30;;;;;;;17.26;50.63;101810.13;7397037;19;20446;-60
2022/10/30 09:48:57;;;;;;;25.05;9.82;;;;;;;17.26;50.67;101810.13;7393936;19;20003;-60
2022/10/30 09:51:45;;;;;;;30.70;11.55;;;;;;;17.30;50.76;101808.31;7397572;19;20014;-60
2022/10/30 09:54:35;;;;;;;26.20;12.85;;;;;;;17.36;50.76;101804.06;7393768;19;19995;-60
2022/10/30 09:57:05;;;;;;;22.95;10.65;;;;;;;17.39;50.69;101806.09;7394677;19;19999;-60
2022/10/30 10:00:06;;;;;;;27.77;10.77;;;;;;;17.49;50.54;101806.69;7392191;19;20440;-60
2022/10/30 10:02:41;;;;;;;24.83;10.68;;;;;;;17.52;50.39;101816.97;7393183;19;19995;-60
2022/10/30 10:05:28;;;;;;;20.95;11.60;;;;;;;17.56;50.52;101817.84;7396404;19;20441;-61
2022/10/30 10:08:03;;;;;;;22.58;11.73;;;;;;;17.56;50.51;101813.13;7392538;19;20010;-61
2022/10/30 10:10:37;;;;;;;25.05;11.45;;;;;;;17.61;50.67;101820.31;7396435;19;20018;-61
2022/10/30 10:13:06;;;;;;;23.52;11.13;;;;;;;17.66;50.59;101816.47;7395822;19;20006;-61
2022/10/30 10:15:35;;;;;;;23.35;12.98;;;;;;;17.67;50.43;101807.81;7396541;19;20002;-61
2022/10/30 10:18:06;;;;;;;21.02;9.95;;;;;;;17.72;50.84;101803.94;7393210;19;20018;-61
2022/10/30 10:20:35;;;;;;;23.23;10.55;;;;;;;17.76;50.85;101805.59;7397025;19;20058;-61
2022/10/30 10:23:13;;;;;;;20.83;10.15;;;;;;;17.76;50.68;101800.09;7386987;19;19999;-61
2022/10/30 10:25:49;;;;;;;19.98;10.23;;;;;;;17.82;50.60;101805.31;7394246;19;20003;-61
2022/10/30 10:28:41;;;;;;;21.15;10.05;;;;;;;17.90;50.19;101815.31;7391750;19;20011;-61
2022/10/30 10:31:22;;;;;;;26.67;10.57;;;;;;;17.93;50.09;101809.06;7396023;19;20629;-61
2022/10/30 10:34:08;;;;;;;21.58;9.88;;;;;;;17.97;50.17;101809.13;7392653;19;20620;-61
2022/10/30 10:36:49;;;;;;;22.83;9.57;;;;;;;18.01;50.24;101816.31;7393988;19;20010;-61
2022/10/30 10:39:22;;;;;;;24.90;10.18;;;;;;;18.04;50.04;101815.56;7394435;19;20347;-60
2022/10/30 10:41:56;;;;;;;28.33;10.57;;;;;;;18.08;50.10;101805.41;7394631;19;20003;-61
2022/10/30 10:44:52;;;;;;;21.60;9.68;;;;;;;18.10;50.26;101807.78;7394623;19;20022;-62
2022/10/30 10:47:48;;;;;;;22.58;10.00;;;;;;;18.15;50.43;101803.94;7395991;19;20010;-62
2022/10/30 10:50:24;;;;;;;21.70;9.77;;;;;;;18.24;50.00;101812.78;7393941;19;20009;-62
2022/10/30 10:53:05;;;;;;;23.17;9.73;;;;;;;18.26;50.15;101797.41;7395598;19;20473;-62
2022/10/30 10:55:36;;;;;;;22.35;9.65;;;;;;;18.29;50.00;101798.66;7393220;19;20022;-62
2022/10/30 10:58:12;;;;;;;20.27;9.73;;;;;;;18.35;49.93;101786.09;7386080;19;20011;-58
2022/10/30 11:00:39;;;;;;;23.35;9.55;;;;;;;18.36;50.22;101786.91;7394687;19;19998;-58
2022/10/30 11:03:20;;;;;;;23.45;10.18;;;;;;;18.41;50.13;101784.59;7391578;19;19990;-58
2022/10/30 11:05:51;;;;;;;20.38;9.48;;;;;;;18.42;50.14;101791.75;7395056;19;20015;-57
2022/10/30 11:08:25;;;;;;;18.25;9.20;;;;;;;18.46;49.95;101792.59;7393905;19;20046;-57
2022/10/30 11:10:57;;;;;;;26.13;9.77;;;;;;;18.50;49.80;101792.63;7397307;19;20081;-57
2022/10/30 11:13:26;;;;;;;25.38;10.30;;;;;;;18.52;49.75;101795.03;7397026;19;20038;-58
2022/10/30 11:16:10;;;;;;;21.63;9.95;;;;;;;18.56;49.96;101795.88;7396912;19;20020;-57
2022/10/30 11:18:35;;;;;;;;;;;;;;;18.59;49.58;101795.94;7394495;19;19999;-57
2022/10/30 11:21:17;;;;;;;21.08;8.88;;;;;;;18.58;49.77;101797.09;7395335;19;19918;-57
2022/10/30 11:23:47;;;;;;;22.30;9.32;;;;;;;18.58;49.68;101794.34;7394775;19;20010;-60
2022/10/30 11:26:16;;;;;;;17.48;8.85;;;;;;;18.59;49.68;101789.59;7394945;19;20007;-58